Time;durP1;ratioP1;P1;durP2;ratioP2;P2;SDS_P1;SDS_P2;PMS_P1;PMS_P2;Temp;Humidity;BMP_temperature;BMP_pressure;BME280_temperature;BME280_humidity;BME280_pressure;Samples;Min_cycle;Max_cycle;Signal;HPM_P1;HPM_P2
2022/11/06 00:00:20;;;;;;;;;;;9.10;90.00;;;;;;5055079;28;20455;-54
2022/11/06 00:02:46;;;;;;;;;;;8.90;90.60;;;;;;5054485;28;19905;-55
2022/11/06 00:07:55;;;;;;;;;;;8.60;91.30;;;;;;5054963;28;19944;-54
2022/11/06 00:10:21;;;;;;;;;;;8.40;91.90;;;;;;5054639;28;20365;-53
2022/11/06 00:12:47;;;;;;;;;;;8.30;91.90;;;;;;5054856;28;20325;-52
2022/11/06 00:15:13;;;;;;;;;;;8.40;92.20;;;;;;5053416;28;20071;-53
2022/11/06 00:17:39;;;;;;;;;;;8.50;92.10;;;;;;5054720;28;20071;-52
2022/11/06 00:20:05;;;;;;;;;;;8.60;92.00;;;;;;5052550;28;20313;-54
2022/11/06 00:22:34;;;;;;;;;;;8.70;91.90;;;;;;5054592;28;20373;-53
2022/11/06 00:25:00;;;;;;;;;;;8.80;91.60;;;;;;5054621;28;19908;-53
2022/11/06 00:27:26;;;;;;;;;;;8.60;91.60;;;;;;5054587;28;19915;-52
2022/11/06 00:29:51;;;;;;;;;;;8.60;91.70;;;;;;5054291;28;19909;-52
2022/11/06 00:32:17;;;;;;;;;;;8.40;92.20;;;;;;5054385;28;19908;-54
2022/11/06 00:34:42;;;;;;;;;;;8.30;92.50;;;;;;5054017;28;20325;-53
2022/11/06 00:37:08;;;;;;;;;;;8.40;92.40;;;;;;5054361;28;19909;-53
2022/11/06 00:39:33;;;;;;;;;;;8.50;92.20;;;;;;5054058;28;19916;-53
2022/11/06 00:41:59;;;;;;;;;;;8.60;91.70;;;;;;5054226;28;19905;-53
2022/11/06 00:44:24;;;;;;;;;;;8.70;91.60;;;;;;5054569;28;19920;-55
2022/11/06 00:46:50;;;;;;;;;;;8.70;91.10;;;;;;5054150;28;19915;-55
2022/11/06 00:49:15;;;;;;;;;;;8.60;91.50;;;;;;5053436;28;19908;-55
2022/11/06 00:51:41;;;;;;;;;;;8.60;91.70;;;;;;5054501;28;19927;-54
2022/11/06 00:54:09;;;;;;;;;;;8.70;91.60;;;;;;5054039;28;19908;-53
2022/11/06 00:56:35;;;;;;;;;;;8.80;91.10;;;;;;5054062;28;19915;-53
2022/11/06 00:59:01;;;;;;;;;;;8.80;91.10;;;;;;5053594;28;20007;-52
2022/11/06 01:01:31;;;;;;;;;;;8.90;91.10;;;;;;5054041;28;20436;-53
2022/11/06 01:03:59;;;;;;;;;;;8.90;90.80;;;;;;5053452;28;20320;-53
2022/11/06 01:06:26;;;;;;;;;;;9.00;90.70;;;;;;5054198;28;19908;-54
2022/11/06 01:08:52;;;;;;;;;;;9.00;90.50;;;;;;5052679;28;19909;-56
2022/11/06 01:11:29;;;;;;;;;;;9.00;90.40;;;;;;5054025;28;19908;-53
2022/11/06 01:13:56;;;;;;;;;;;9.10;90.40;;;;;;5053481;28;19955;-54
2022/11/06 01:16:22;;;;;;;;;;;9.10;90.70;;;;;;5053446;28;20372;-53
2022/11/06 01:18:48;;;;;;;;;;;8.90;90.70;;;;;;5053003;28;19939;-52
2022/11/06 01:21:15;;;;;;;;;;;8.90;90.70;;;;;;5053481;28;20327;-55
2022/11/06 01:23:41;;;;;;;;;;;8.70;91.00;;;;;;5053728;28;19955;-53
2022/11/06 01:26:07;;;;;;;;;;;8.50;91.30;;;;;;5053511;28;19912;-54
2022/11/06 01:28:33;;;;;;;;;;;8.50;91.90;;;;;;5052988;28;19912;-53
2022/11/06 01:31:02;;;;;;;;;;;8.50;92.10;;;;;;5052951;28;19915;-53
2022/11/06 01:33:28;;;;;;;;;;;8.50;91.90;;;;;;5052991;28;20329;-53
2022/11/06 01:35:53;;;;;;;;;;;8.60;92.00;;;;;;5053132;28;20035;-53
2022/11/06 01:38:19;;;;;;;;;;;8.60;91.80;;;;;;5053018;28;19935;-52
2022/11/06 01:40:46;;;;;;;;;;;8.60;91.70;;;;;;5052870;28;19936;-55
2022/11/06 01:43:14;;;;;;;;;;;8.70;91.80;;;;;;5053000;28;19909;-53
2022/11/06 01:45:41;;;;;;;;;;;8.60;91.70;;;;;;5053000;28;20262;-52
2022/11/06 01:48:07;;;;;;;;;;;8.70;91.50;;;;;;5052544;28;20404;-54
2022/11/06 01:50:32;;;;;;;;;;;8.70;91.20;;;;;;5053098;28;19991;-54
2022/11/06 01:53:01;;;;;;;;;;;8.70;91.10;;;;;;5053015;28;19936;-53
2022/11/06 01:55:33;;;;;;;;;;;8.80;91.00;;;;;;5053071;28;19913;-55
2022/11/06 01:58:00;;;;;;;;;;;8.90;90.80;;;;;;5052495;28;19959;-52
2022/11/06 02:00:26;;;;;;;;;;;8.80;91.00;;;;;;5052585;28;19909;-52
2022/11/06 02:02:52;;;;;;;;;;;8.70;91.40;;;;;;5052667;28;19908;-53
2022/11/06 02:05:17;;;;;;;;;;;8.60;91.60;;;;;;5052727;28;20381;-55
2022/11/06 02:07:43;;;;;;;;;;;8.70;91.50;;;;;;5052464;28;19909;-55
2022/11/06 02:10:09;;;;;;;;;;;8.70;91.20;;;;;;5052313;28;19909;-53
2022/11/06 02:13:09;;;;;;;;;;;8.80;91.10;;;;;;5052520;28;19908;-53
2022/11/06 02:15:41;;;;;;;;;;;8.80;91.00;;;;;;5045139;28;19913;-53
2022/11/06 02:18:15;;;;;;;;;;;8.90;90.90;;;;;;5042241;28;20206;-52
2022/11/06 02:21:00;;;;;;;;;;;8.90;90.80;;;;;;5052803;28;19912;-54
2022/11/06 02:23:43;;;;;;;;;;;8.90;90.70;;;;;;5052335;28;19920;-56
2022/11/06 02:26:27;;;;;;;;;;;9.00;90.60;;;;;;5052090;28;19905;-54
2022/11/06 02:28:58;;;;;;;;;;;8.90;90.60;;;;;;5051768;28;19917;-53
2022/11/06 02:31:26;;;;;;;;;;;8.90;90.50;;;;;;5051244;28;20015;-53
2022/11/06 02:33:58;;;;;;;;;;;8.90;90.80;;;;;;5051901;28;19950;-53
2022/11/06 02:36:28;;;;;;;;;;;8.80;90.80;;;;;;5052158;28;19916;-53
2022/11/06 02:38:56;;;;;;;;;;;8.80;90.70;;;;;;5059567;28;19908;-55
2022/11/06 02:41:24;;;;;;;;;;;8.80;90.70;;;;;;5053894;28;19905;-52
2022/11/06 02:43:54;;;;;;;;;;;8.90;91.10;;;;;;5051889;28;20289;-53
2022/11/06 02:46:27;;;;;;;;;;;8.70;91.00;;;;;;5052000;28;19989;-54
2022/11/06 02:48:57;;;;;;;;;;;8.50;91.40;;;;;;5051494;28;19909;-53
2022/11/06 02:51:24;;;;;;;;;;;8.40;90.30;;;;;;5052183;28;19904;-55
2022/11/06 02:53:51;;;;;;;;;;;8.40;90.50;;;;;;5051732;28;19936;-54
2022/11/06 02:56:19;;;;;;;;;;;8.30;91.00;;;;;;5051696;28;19912;-55
2022/11/06 02:58:45;;;;;;;;;;;8.30;91.00;;;;;;5051488;28;19932;-54
2022/11/06 03:01:14;;;;;;;;;;;8.30;91.10;;;;;;5051652;28;20273;-53
2022/11/06 03:03:42;;;;;;;;;;;8.40;90.80;;;;;;5050772;28;20007;-55
2022/11/06 03:06:16;;;;;;;;;;;8.40;90.30;;;;;;5052091;28;19923;-53
2022/11/06 03:08:44;;;;;;;;;;;8.40;90.20;;;;;;5051327;28;19905;-54
2022/11/06 03:11:10;;;;;;;;;;;8.40;90.20;;;;;;5051385;28;19916;-55
2022/11/06 03:13:53;;;;;;;;;;;8.40;90.20;;;;;;5051965;28;19909;-52
2022/11/06 03:16:19;;;;;;;;;;;8.30;90.20;;;;;;5051780;28;19904;-55
2022/11/06 03:19:06;;;;;;;;;;;8.00;90.40;;;;;;5051449;28;20392;-53
2022/11/06 03:21:50;;;;;;;;;;;7.90;90.50;;;;;;5051479;28;19913;-55
2022/11/06 03:24:18;;;;;;;;;;;7.90;90.80;;;;;;5051311;28;20055;-54
2022/11/06 03:26:49;;;;;;;;;;;8.00;90.70;;;;;;5051917;28;19917;-55
2022/11/06 03:29:20;;;;;;;;;;;8.00;90.40;;;;;;5051047;28;19915;-55
2022/11/06 03:31:58;;;;;;;;;;;8.00;90.60;;;;;;5051005;28;20396;-53
2022/11/06 03:34:28;;;;;;;;;;;8.00;90.50;;;;;;5055481;28;19908;-54
2022/11/06 03:36:59;;;;;;;;;;;8.00;90.60;;;;;;5067883;28;20101;-52
2022/11/06 03:39:27;;;;;;;;;;;7.90;90.50;;;;;;5055250;28;20096;-52
2022/11/06 03:41:56;;;;;;;;;;;7.80;90.90;;;;;;5055130;28;20377;-52
2022/11/06 03:44:25;;;;;;;;;;;7.70;91.10;;;;;;5055060;28;19915;-54
2022/11/06 03:47:00;;;;;;;;;;;7.70;91.00;;;;;;5055319;28;19963;-53
2022/11/06 03:49:32;;;;;;;;;;;7.80;90.80;;;;;;5054787;28;19966;-52
2022/11/06 03:52:03;;;;;;;;;;;7.90;90.60;;;;;;5054491;28;19913;-55
2022/11/06 03:54:31;;;;;;;;;;;7.90;90.50;;;;;;5054115;28;20361;-54
2022/11/06 03:57:03;;;;;;;;;;;8.00;90.30;;;;;;5054591;28;19909;-52
2022/11/06 03:59:32;;;;;;;;;;;8.00;90.20;;;;;;5053369;28;20308;-54
2022/11/06 04:02:00;;;;;;;;;;;8.10;90.10;;;;;;5053956;28;19915;-52
2022/11/06 04:04:29;;;;;;;;;;;8.10;90.40;;;;;;5053707;28;19938;-54
2022/11/06 04:07:00;;;;;;;;;;;8.10;90.30;;;;;;5054721;28;19935;-53
2022/11/06 04:14:58;;;;;;;;;;;7.90;91.40;;;;;;5054899;28;19962;-55
2022/11/06 04:17:26;;;;;;;;;;;7.70;91.90;;;;;;5054729;28;19915;-54
2022/11/06 04:19:54;;;;;;;;;;;7.60;92.20;;;;;;5053506;28;19959;-54
2022/11/06 04:22:35;;;;;;;;;;;7.60;92.40;;;;;;5054152;28;20358;-52
2022/11/06 04:28:10;;;;;;;;;;;7.70;92.30;;;;;;5054648;28;20002;-52
2022/11/06 04:30:47;;;;;;;;;;;7.70;92.00;;;;;;5053592;28;19931;-55
2022/11/06 04:33:42;;;;;;;;;;;7.80;91.80;;;;;;5051354;28;19909;-54
2022/11/06 04:36:07;;;;;;;;;;;7.80;91.40;;;;;;5046340;28;19962;-52
2022/11/06 04:38:36;;;;;;;;;;;7.80;91.60;;;;;;5053096;28;19920;-54
2022/11/06 04:41:12;;;;;;;;;;;7.90;91.60;;;;;;5050770;28;19919;-52
2022/11/06 04:43:37;;;;;;;;;;;7.90;91.60;;;;;;5053072;28;19916;-51
2022/11/06 04:46:04;;;;;;;;;;;8.00;91.70;;;;;;5054580;28;19904;-51
2022/11/06 04:48:30;;;;;;;;;;;7.90;92.00;;;;;;5053627;28;19909;-53
2022/11/06 04:50:58;;;;;;;;;;;7.80;92.60;;;;;;5053696;28;19913;-51
2022/11/06 04:53:24;;;;;;;;;;;7.60;92.50;;;;;;5054119;28;19909;-56
2022/11/06 04:55:51;;;;;;;;;;;7.60;92.40;;;;;;5053879;28;19915;-54
2022/11/06 04:58:17;;;;;;;;;;;7.60;92.50;;;;;;5053492;28;19916;-51
2022/11/06 05:00:47;;;;;;;;;;;7.70;92.20;;;;;;5052073;28;19916;-51
2022/11/06 05:03:13;;;;;;;;;;;7.70;92.00;;;;;;5054104;28;20319;-53
2022/11/06 05:05:38;;;;;;;;;;;7.80;91.70;;;;;;5053919;28;20426;-51
2022/11/06 05:08:04;;;;;;;;;;;7.90;91.60;;;;;;5053559;28;19917;-53
2022/11/06 05:10:30;;;;;;;;;;;7.90;91.60;;;;;;5053190;28;20369;-51
2022/11/06 05:12:55;;;;;;;;;;;7.90;91.50;;;;;;5053453;28;20404;-53
2022/11/06 05:15:21;;;;;;;;;;;7.90;91.40;;;;;;5053788;28;19912;-52
2022/11/06 05:17:46;;;;;;;;;;;7.70;91.70;;;;;;5052360;28;20308;-51
2022/11/06 05:20:12;;;;;;;;;;;7.70;91.60;;;;;;5053109;28;20490;-53
2022/11/06 05:25:35;;;;;;;;;;;7.70;91.50;;;;;;5053271;28;19916;-53
2022/11/06 05:28:03;;;;;;;;;;;7.70;91.40;;;;;;5053584;28;19951;-53
2022/11/06 05:30:29;;;;;;;;;;;7.70;91.20;;;;;;5052651;28;19908;-53
2022/11/06 05:32:54;;;;;;;;;;;7.70;91.00;;;;;;5053304;28;20300;-55
2022/11/06 05:35:20;;;;;;;;;;;7.70;91.10;;;;;;5053167;28;20293;-53
2022/11/06 05:37:46;;;;;;;;;;;7.70;91.00;;;;;;5053172;28;19908;-52
2022/11/06 05:40:12;;;;;;;;;;;7.60;91.10;;;;;;5052783;28;19913;-53
2022/11/06 05:42:38;;;;;;;;;;;7.60;91.30;;;;;;5053209;28;19909;-55
2022/11/06 05:45:04;;;;;;;;;;;7.40;91.60;;;;;;5052985;28;19909;-54
2022/11/06 05:47:30;;;;;;;;;;;7.40;91.70;;;;;;5052852;28;19915;-53
2022/11/06 05:49:55;;;;;;;;;;;7.40;91.90;;;;;;5052944;28;19913;-53
2022/11/06 05:52:21;;;;;;;;;;;7.20;92.10;;;;;;5052936;28;19916;-54
2022/11/06 05:54:47;;;;;;;;;;;7.20;92.10;;;;;;5052541;28;19952;-53
2022/11/06 05:57:12;;;;;;;;;;;7.10;91.90;;;;;;5052670;28;19916;-55
2022/11/06 05:59:39;;;;;;;;;;;7.00;92.20;;;;;;5032856;28;19921;-54
2022/11/06 06:02:05;;;;;;;;;;;6.90;92.10;;;;;;5050410;28;20388;-54
2022/11/06 06:04:30;;;;;;;;;;;6.70;92.60;;;;;;5052498;28;19909;-54
2022/11/06 06:06:56;;;;;;;;;;;6.60;92.80;;;;;;5052562;28;19912;-53
2022/11/06 06:09:21;;;;;;;;;;;6.50;93.20;;;;;;5052723;28;19940;-52
2022/11/06 06:11:51;;;;;;;;;;;6.50;93.60;;;;;;5052569;28;19909;-53
2022/11/06 06:14:16;;;;;;;;;;;6.60;93.60;;;;;;5052613;28;19908;-52
2022/11/06 06:16:42;;;;;;;;;;;6.70;93.40;;;;;;5052373;28;19991;-54
2022/11/06 06:19:07;;;;;;;;;;;6.80;93.50;;;;;;5052428;28;19942;-54
2022/11/06 06:21:34;;;;;;;;;;;6.90;93.40;;;;;;5050657;28;19924;-52
2022/11/06 06:24:00;;;;;;;;;;;6.90;93.40;;;;;;5051472;28;19909;-52
2022/11/06 06:26:25;;;;;;;;;;;7.00;93.20;;;;;;5051587;28;19908;-55
2022/11/06 06:28:51;;;;;;;;;;;7.00;93.30;;;;;;5051237;28;19916;-52
2022/11/06 06:31:16;;;;;;;;;;;7.10;93.10;;;;;;5051493;28;19979;-52
2022/11/06 06:33:42;;;;;;;;;;;7.20;92.90;;;;;;5051454;28;20379;-52
2022/11/06 06:36:08;;;;;;;;;;;7.30;92.80;;;;;;5051745;28;19905;-55
2022/11/06 06:38:33;;;;;;;;;;;7.40;92.60;;;;;;5050869;28;19916;-55
2022/11/06 06:41:00;;;;;;;;;;;7.50;92.30;;;;;;5051242;28;19909;-52
2022/11/06 06:43:26;;;;;;;;;;;7.50;92.30;;;;;;5051335;28;20323;-55
2022/11/06 06:45:52;;;;;;;;;;;7.50;92.20;;;;;;5051259;28;19999;-52
2022/11/06 06:48:17;;;;;;;;;;;7.50;92.30;;;;;;5051191;28;19916;-52
2022/11/06 06:50:43;;;;;;;;;;;7.50;92.30;;;;;;5051463;28;19904;-53
2022/11/06 06:53:08;;;;;;;;;;;7.50;92.20;;;;;;5051084;28;19944;-53
2022/11/06 06:55:34;;;;;;;;;;;7.50;92.50;;;;;;5051245;28;19909;-54
2022/11/06 06:58:00;;;;;;;;;;;7.50;92.50;;;;;;5051102;28;19992;-52
2022/11/06 07:00:26;;;;;;;;;;;7.50;92.50;;;;;;5051661;28;19935;-53
2022/11/06 07:02:51;;;;;;;;;;;7.60;92.60;;;;;;5061354;28;19909;-52
2022/11/06 07:05:17;;;;;;;;;;;7.60;92.80;;;;;;5058601;28;19909;-52
2022/11/06 07:07:43;;;;;;;;;;;7.60;92.70;;;;;;5050169;28;19955;-52
2022/11/06 07:10:08;;;;;;;;;;;7.60;92.80;;;;;;5050546;28;19916;-57
2022/11/06 07:12:34;;;;;;;;;;;7.70;93.00;;;;;;5051177;28;19904;-56
2022/11/06 07:14:59;;;;;;;;;;;7.80;92.90;;;;;;5050991;28;19913;-55
2022/11/06 07:17:26;;;;;;;;;;;7.90;92.80;;;;;;5051135;28;19908;-56
2022/11/06 07:19:51;;;;;;;;;;;7.90;92.90;;;;;;5048006;28;19912;-56
2022/11/06 07:22:17;;;;;;;;;;;8.10;93.00;;;;;;5007305;28;1236998;-54
2022/11/06 07:24:42;;;;;;;;;;;8.10;92.80;;;;;;5051551;28;19995;-57
2022/11/06 07:27:08;;;;;;;;;;;8.20;92.70;;;;;;5049717;28;19916;-55
2022/11/06 07:29:34;;;;;;;;;;;8.30;92.80;;;;;;5049829;28;20361;-55
2022/11/06 07:32:00;;;;;;;;;;;8.40;92.90;;;;;;5051292;28;19905;-56
2022/11/06 07:34:25;;;;;;;;;;;8.50;92.50;;;;;;5050228;28;19909;-55
2022/11/06 07:36:51;;;;;;;;;;;8.60;92.40;;;;;;5051716;28;19912;-55
2022/11/06 07:42:20;;;;;;;;;;;8.80;92.20;;;;;;5049266;28;20324;-53
2022/11/06 07:44:45;;;;;;;;;;;8.90;92.00;;;;;;5051695;28;19908;-52
2022/11/06 07:47:11;;;;;;;;;;;9.00;91.80;;;;;;5051695;28;19904;-53
2022/11/06 07:49:37;;;;;;;;;;;9.00;91.50;;;;;;5051528;28;19913;-52
2022/11/06 07:52:03;;;;;;;;;;;9.10;91.40;;;;;;5051494;28;19912;-52
2022/11/06 07:54:29;;;;;;;;;;;9.20;91.10;;;;;;5051451;28;19912;-53
2022/11/06 07:56:55;;;;;;;;;;;9.30;90.70;;;;;;5050309;28;19905;-53
2022/11/06 07:59:20;;;;;;;;;;;9.40;90.80;;;;;;5051208;28;19915;-52
2022/11/06 08:01:46;;;;;;;;;;;9.50;90.70;;;;;;5051496;28;19904;-52
2022/11/06 08:04:11;;;;;;;;;;;9.60;90.60;;;;;;5051542;28;20376;-52
2022/11/06 08:06:37;;;;;;;;;;;9.70;90.00;;;;;;5051407;28;20365;-54
2022/11/06 08:09:06;;;;;;;;;;;9.80;90.00;;;;;;5051273;28;19976;-52
2022/11/06 08:11:32;;;;;;;;;;;9.90;90.10;;;;;;5051330;28;20290;-53
2022/11/06 08:13:58;;;;;;;;;;;10.00;90.00;;;;;;5049741;28;19924;-52
2022/11/06 08:16:24;;;;;;;;;;;10.10;89.60;;;;;;5050438;28;19915;-52
2022/11/06 08:18:51;;;;;;;;;;;10.20;88.70;;;;;;5052707;28;19958;-53
2022/11/06 08:21:17;;;;;;;;;;;10.30;88.50;;;;;;5055371;28;19999;-52
2022/11/06 08:23:43;;;;;;;;;;;10.30;88.60;;;;;;5066082;28;20333;-52
2022/11/06 08:26:09;;;;;;;;;;;10.50;88.70;;;;;;5054768;28;19908;-54
2022/11/06 08:28:34;;;;;;;;;;;10.60;86.60;;;;;;5053408;28;19904;-52
2022/11/06 08:31:06;;;;;;;;;;;10.60;87.10;;;;;;5053525;28;19909;-52
2022/11/06 08:33:32;;;;;;;;;;;10.70;87.30;;;;;;5053681;28;19915;-51
2022/11/06 08:36:02;;;;;;;;;;;10.80;86.20;;;;;;5053870;28;19908;-54
2022/11/06 08:38:27;;;;;;;;;;;10.90;85.90;;;;;;5053653;28;19943;-52
2022/11/06 08:40:53;;;;;;;;;;;11.00;86.70;;;;;;5051418;28;19913;-52
2022/11/06 08:43:18;;;;;;;;;;;11.10;87.20;;;;;;5053378;28;19924;-52
2022/11/06 08:45:44;;;;;;;;;;;11.20;86.60;;;;;;5053246;28;20012;-53
2022/11/06 08:48:10;;;;;;;;;;;11.30;85.10;;;;;;5055624;28;19927;-52
2022/11/06 08:50:37;;;;;;;;;;;11.30;84.00;;;;;;5053359;28;19912;-52
2022/11/06 08:53:03;;;;;;;;;;;11.40;84.60;;;;;;5053502;28;20443;-52
2022/11/06 08:55:32;;;;;;;;;;;11.50;83.60;;;;;;5053438;28;19908;-52
2022/11/06 08:57:58;;;;;;;;;;;11.60;84.10;;;;;;5053607;28;19909;-52
2022/11/06 09:00:24;;;;;;;;;;;11.70;83.10;;;;;;5053115;28;20385;-52
2022/11/06 09:02:49;;;;;;;;;;;11.70;81.60;;;;;;5053062;28;19967;-53
2022/11/06 09:05:15;;;;;;;;;;;11.80;81.30;;;;;;5054999;28;20422;-52
2022/11/06 09:07:41;;;;;;;;;;;11.90;81.80;;;;;;5050276;28;19909;-53
2022/11/06 09:10:06;;;;;;;;;;;12.00;81.80;;;;;;5054644;28;19909;-53
2022/11/06 09:12:32;;;;;;;;;;;12.10;81.40;;;;;;5053221;28;19962;-52
2022/11/06 09:14:57;;;;;;;;;;;12.20;79.00;;;;;;5053039;28;19944;-52
2022/11/06 09:17:23;;;;;;;;;;;12.20;81.40;;;;;;5053263;28;20582;-53
2022/11/06 09:19:49;;;;;;;;;;;12.30;80.50;;;;;;5052037;28;19912;-50
2022/11/06 09:22:15;;;;;;;;;;;12.30;79.60;;;;;;5048871;28;19996;-54
2022/11/06 09:24:40;;;;;;;;;;;12.40;78.30;;;;;;5053056;28;20024;-53
2022/11/06 09:27:06;;;;;;;;;;;12.50;79.90;;;;;;5054082;28;20319;-55
2022/11/06 09:29:31;;;;;;;;;;;12.60;77.60;;;;;;5051642;28;19909;-53
2022/11/06 09:31:57;;;;;;;;;;;12.60;78.30;;;;;;5052420;28;20292;-55
2022/11/06 09:34:22;;;;;;;;;;;12.70;78.20;;;;;;5053030;28;19967;-53
2022/11/06 09:36:48;;;;;;;;;;;12.70;79.00;;;;;;5054870;28;19958;-52
2022/11/06 09:39:13;;;;;;;;;;;12.80;78.70;;;;;;5071788;28;19909;-54
2022/11/06 09:41:49;;;;;;;;;;;12.90;78.10;;;;;;5073314;28;19958;-54
2022/11/06 09:44:36;;;;;;;;;;;12.90;74.70;;;;;;5073582;28;19904;-52
2022/11/06 09:47:04;;;;;;;;;;;13.00;74.60;;;;;;5073252;28;19911;-54
2022/11/06 09:49:56;;;;;;;;;;;13.10;76.50;;;;;;5073118;28;19904;-52
2022/11/06 09:52:29;;;;;;;;;;;13.20;76.00;;;;;;5071128;28;19904;-52
2022/11/06 09:55:18;;;;;;;;;;;13.30;75.50;;;;;;5073220;28;19904;-52
2022/11/06 09:57:43;;;;;;;;;;;13.40;75.70;;;;;;5067513;28;20365;-53
2022/11/06 10:00:11;;;;;;;;;;;13.40;75.70;;;;;;5070665;28;19916;-52
2022/11/06 10:02:37;;;;;;;;;;;13.50;75.00;;;;;;5053032;28;20344;-54
2022/11/06 10:05:21;;;;;;;;;;;13.60;75.20;;;;;;5053054;28;19950;-52
2022/11/06 10:07:49;;;;;;;;;;;13.70;73.10;;;;;;5052902;28;19999;-54
2022/11/06 10:10:17;;;;;;;;;;;13.80;74.40;;;;;;5052213;28;19912;-52
2022/11/06 10:12:51;;;;;;;;;;;13.80;74.40;;;;;;5052952;28;20313;-54
2022/11/06 10:15:37;;;;;;;;;;;13.90;72.60;;;;;;5052902;28;19947;-53
2022/11/06 10:18:25;;;;;;;;;;;13.90;74.30;;;;;;5052653;28;19905;-52
2022/11/06 10:20:52;;;;;;;;;;;14.00;74.70;;;;;;5052560;28;19920;-52
2022/11/06 10:23:17;;;;;;;;;;;14.10;74.20;;;;;;5052820;28;19974;-52
2022/11/06 10:25:43;;;;;;;;;;;14.20;73.10;;;;;;5052770;28;20374;-53
2022/11/06 10:28:20;;;;;;;;;;;14.30;73.80;;;;;;5052547;28;20375;-52
2022/11/06 10:31:01;;;;;;;;;;;14.40;71.60;;;;;;5052381;28;20110;-52
2022/11/06 10:33:37;;;;;;;;;;;14.50;73.00;;;;;;5052565;28;19916;-53
2022/11/06 10:36:06;;;;;;;;;;;14.60;68.50;;;;;;5052153;28;20300;-53
2022/11/06 10:38:36;;;;;;;;;;;14.70;70.60;;;;;;5052006;28;19984;-53
2022/11/06 10:41:02;;;;;;;;;;;14.80;67.10;;;;;;5051612;28;19911;-52
2022/11/06 10:43:33;;;;;;;;;;;14.90;70.40;;;;;;5051973;28;19909;-52
2022/11/06 10:46:09;;;;;;;;;;;15.00;68.70;;;;;;5050875;28;19966;-52
2022/11/06 10:48:50;;;;;;;;;;;15.10;68.40;;;;;;5051418;28;19999;-53
2022/11/06 10:51:47;;;;;;;;;;;15.10;66.30;;;;;;5051616;28;20434;-53
2022/11/06 10:54:28;;;;;;;;;;;15.20;67.00;;;;;;5039918;28;19995;-53
2022/11/06 10:56:53;;;;;;;;;;;15.30;66.30;;;;;;5052142;28;19958;-53
2022/11/06 10:59:19;;;;;;;;;;;15.40;64.10;;;;;;5051860;28;19912;-54
2022/11/06 11:01:45;;;;;;;;;;;15.40;65.10;;;;;;5051861;28;19904;-53
2022/11/06 11:04:10;;;;;;;;;;;15.40;63.30;;;;;;5052009;28;19905;-53
2022/11/06 11:06:40;;;;;;;;;;;15.50;65.20;;;;;;5052236;28;19963;-54
2022/11/06 11:09:24;;;;;;;;;;;15.60;63.10;;;;;;5051850;28;20381;-53
2022/11/06 11:11:49;;;;;;;;;;;15.60;65.40;;;;;;5051971;28;19905;-53
2022/11/06 11:14:21;;;;;;;;;;;15.70;64.80;;;;;;5050633;28;19904;-53
2022/11/06 11:16:47;;;;;;;;;;;15.70;65.10;;;;;;5050952;28;19993;-53
2022/11/06 11:19:13;;;;;;;;;;;;;;;;;;5050502;28;20005;-54
2022/11/06 11:21:39;;;;;;;;;;;;;;;;;;5051797;28;19913;-54
2022/11/06 11:24:05;;;;;;;;;;;;;;;;;;5051752;28;20506;-52
2022/11/06 11:26:45;;;;;;;;;;;15.80;63.40;;;;;;5051905;28;19912;-53
2022/11/06 11:29:14;;;;;;;;;;;15.80;58.60;;;;;;5051729;28;19966;-55
2022/11/06 11:31:39;;;;;;;;;;;15.80;61.80;;;;;;5051812;28;19988;-54
2022/11/06 11:34:14;;;;;;;;;;;15.80;61.50;;;;;;5051485;28;20460;-53
2022/11/06 11:36:40;;;;;;;;;;;;;;;;;;5051426;28;19905;-55
2022/11/06 11:39:06;;;;;;;;;;;;;;;;;;5051145;28;20254;-54
2022/11/06 11:41:32;;;;;;;;;;;;;;;;;;5051181;28;19911;-54
2022/11/06 11:43:58;;;;;;;;;;;;;;;;;;5050898;28;20003;-53
2022/11/06 11:46:24;;;;;;;;;;;;;;;;;;5051541;28;20430;-52
2022/11/06 11:48:50;;;;;;;;;;;;;;;;;;5051111;28;20027;-54
2022/11/06 11:51:34;;;;;;;;;;;15.90;61.10;;;;;;5050777;28;19939;-55
2022/11/06 11:54:00;;;;;;;;;;;16.90;60.40;;;;;;5053913;28;19915;-55
2022/11/06 11:56:27;;;;;;;;;;;17.00;58.20;;;;;;5054829;28;20285;-52
2022/11/06 11:58:55;;;;;;;;;;;17.10;58.30;;;;;;5054289;28;20361;-52
2022/11/06 12:01:39;;;;;;;;;;;17.10;58.00;;;;;;5055024;28;20397;-55
2022/11/06 12:04:09;;;;;;;;;;;17.20;59.10;;;;;;5055203;28;19908;-52
2022/11/06 12:06:35;;;;;;;;;;;17.40;59.70;;;;;;5054926;28;19916;-52
2022/11/06 12:09:00;;;;;;;;;;;17.50;60.00;;;;;;5053655;28;19905;-52
2022/11/06 12:11:28;;;;;;;;;;;17.90;56.40;;;;;;5054727;28;19990;-53
2022/11/06 12:14:12;;;;;;;;;;;19.20;54.10;;;;;;5055050;28;19904;-53
2022/11/06 12:16:38;;;;;;;;;;;20.60;50.10;;;;;;5035147;28;19909;-55
2022/11/06 12:19:05;;;;;;;;;;;21.90;49.30;;;;;;5034803;28;19948;-54
2022/11/06 12:21:33;;;;;;;;;;;22.80;43.80;;;;;;5048951;28;20444;-54
2022/11/06 12:24:14;;;;;;;;;;;23.10;44.80;;;;;;5054891;28;19908;-55
2022/11/06 12:26:45;;;;;;;;;;;22.70;44.90;;;;;;5054403;28;19931;-52
2022/11/06 12:29:26;;;;;;;;;;;22.00;45.40;;;;;;5054746;28;19904;-54
2022/11/06 12:32:04;;;;;;;;;;;21.20;46.80;;;;;;5054416;28;19909;-53
2022/11/06 12:34:35;;;;;;;;;;;20.50;47.90;;;;;;5054182;28;20372;-52
2022/11/06 12:37:09;;;;;;;;;;;20.00;49.40;;;;;;5054753;28;19959;-52
2022/11/06 12:39:36;;;;;;;;;;;19.70;50.00;;;;;;5054617;28;19913;-52
2022/11/06 12:42:03;;;;;;;;;;;19.50;52.40;;;;;;5053153;28;19909;-52
2022/11/06 12:44:28;;;;;;;;;;;19.40;52.00;;;;;;5054123;28;19909;-53
2022/11/06 12:46:58;;;;;;;;;;;19.70;51.90;;;;;;5052845;28;20499;-54
2022/11/06 12:49:42;;;;;;;;;;;19.90;51.90;;;;;;5052955;28;19916;-52
2022/11/06 12:52:13;;;;;;;;;;;20.00;51.20;;;;;;5051522;28;19909;-54
2022/11/06 12:54:48;;;;;;;;;;;19.90;51.60;;;;;;5053595;28;19909;-52
2022/11/06 12:57:26;;;;;;;;;;;19.60;51.70;;;;;;5041494;28;20391;-52
2022/11/06 13:00:04;;;;;;;;;;;19.30;52.60;;;;;;5053997;28;19955;-51
2022/11/06 13:02:48;;;;;;;;;;;19.10;52.30;;;;;;5054250;28;19940;-53
2022/11/06 13:05:19;;;;;;;;;;;18.90;52.90;;;;;;5053345;28;19950;-54
2022/11/06 13:07:51;;;;;;;;;;;18.60;53.10;;;;;;5053843;28;20305;-54
2022/11/06 13:10:27;;;;;;;;;;;18.50;53.70;;;;;;5053921;28;19905;-53
2022/11/06 13:12:53;;;;;;;;;;;18.40;53.70;;;;;;5053683;28;20266;-51
2022/11/06 13:15:30;;;;;;;;;;;18.30;53.70;;;;;;5053846;28;19953;-53
2022/11/06 13:17:56;;;;;;;;;;;18.20;54.60;;;;;;5053929;28;19912;-51
2022/11/06 13:20:45;;;;;;;;;;;18.20;54.90;;;;;;5053156;28;19912;-52
2022/11/06 13:23:10;;;;;;;;;;;18.30;54.80;;;;;;5046640;28;19915;-51
2022/11/06 13:25:45;;;;;;;;;;;18.50;55.20;;;;;;5053551;28;19913;-54
2022/11/06 13:28:22;;;;;;;;;;;18.70;55.00;;;;;;5053325;28;19915;-55
2022/11/06 13:30:49;;;;;;;;;;;19.10;54.80;;;;;;5053430;28;19908;-53
2022/11/06 13:33:23;;;;;;;;;;;19.40;54.70;;;;;;5053726;28;19905;-52
2022/11/06 13:35:49;;;;;;;;;;;19.60;52.70;;;;;;5053598;28;19981;-53
2022/11/06 13:38:17;;;;;;;;;;;19.80;51.80;;;;;;5052720;28;19983;-51
2022/11/06 13:40:44;;;;;;;;;;;20.00;52.60;;;;;;5052361;28;20384;-52
2022/11/06 13:43:09;;;;;;;;;;;20.40;51.10;;;;;;5051987;28;19930;-53
2022/11/06 13:45:55;;;;;;;;;;;20.50;50.10;;;;;;5052953;28;20383;-52
2022/11/06 13:48:23;;;;;;;;;;;20.50;50.90;;;;;;5049079;28;19904;-52
2022/11/06 13:51:09;;;;;;;;;;;20.50;49.90;;;;;;5051763;28;19991;-52
2022/11/06 13:53:53;;;;;;;;;;;20.30;51.20;;;;;;5051689;28;19908;-52
2022/11/06 13:56:19;;;;;;;;;;;20.00;50.10;;;;;;5052606;28;19916;-52
2022/11/06 13:59:04;;;;;;;;;;;20.00;51.70;;;;;;5051498;28;19909;-52
2022/11/06 14:01:29;;;;;;;;;;;19.80;50.20;;;;;;5052546;28;19915;-52
2022/11/06 14:04:01;;;;;;;;;;;19.60;51.20;;;;;;5051627;28;19909;-52
2022/11/06 14:06:28;;;;;;;;;;;19.60;52.30;;;;;;5052385;28;19983;-51
2022/11/06 14:08:57;;;;;;;;;;;19.70;53.50;;;;;;5052641;28;19905;-52
2022/11/06 14:11:28;;;;;;;;;;;19.90;51.20;;;;;;5052374;28;19909;-54
2022/11/06 14:13:55;;;;;;;;;;;20.00;52.60;;;;;;5052847;28;19905;-52
2022/11/06 14:16:21;;;;;;;;;;;20.00;50.00;;;;;;5052366;28;19915;-54
2022/11/06 14:19:12;;;;;;;;;;;19.90;51.40;;;;;;5052469;28;20003;-54
2022/11/06 14:21:38;;;;;;;;;;;19.80;52.00;;;;;;5042674;28;19919;-52
2022/11/06 14:24:05;;;;;;;;;;;19.70;52.10;;;;;;5052596;28;20208;-51
2022/11/06 14:26:44;;;;;;;;;;;19.60;53.80;;;;;;5052367;28;20262;-52
2022/11/06 14:29:32;;;;;;;;;;;19.50;53.60;;;;;;5051164;28;19908;-52
2022/11/06 14:32:30;;;;;;;;;;;19.40;54.40;;;;;;5045061;28;19927;-52
2022/11/06 14:34:56;;;;;;;;;;;19.30;54.50;;;;;;5034666;28;19909;-51
2022/11/06 14:37:25;;;;;;;;;;;19.20;55.20;;;;;;5052052;28;19909;-51
2022/11/06 14:39:51;;;;;;;;;;;19.10;55.20;;;;;;5051249;28;19917;-51
2022/11/06 14:42:27;;;;;;;;;;;18.90;53.40;;;;;;5055552;28;19920;-52
2022/11/06 14:44:54;;;;;;;;;;;18.60;55.10;;;;;;5052210;28;19912;-53
2022/11/06 14:47:23;;;;;;;;;;;18.50;56.70;;;;;;5052314;28;19931;-52
2022/11/06 14:49:50;;;;;;;;;;;18.40;57.60;;;;;;5052375;28;19943;-52
2022/11/06 14:52:17;;;;;;;;;;;18.30;57.70;;;;;;5052338;28;19987;-52
2022/11/06 14:54:54;;;;;;;;;;;18.20;58.10;;;;;;5051616;28;19948;-53